createdAt,value
2022-09-06T00:01:14.494Z,100244.25
2022-09-06T00:03:43.053Z,100249.28
2022-09-06T00:06:16.849Z,100239.50
2022-09-06T00:08:47.365Z,100234.00
2022-09-06T00:11:16.789Z,100236.28
2022-09-06T00:13:46.152Z,100229.66
2022-09-06T00:16:17.718Z,100238.47
2022-09-06T00:18:46.999Z,100233.16
2022-09-06T00:21:20.330Z,100225.69
2022-09-06T00:23:48.514Z,100225.34
2022-09-06T00:26:17.764Z,100217.09
2022-09-06T00:28:46.519Z,100223.59
2022-09-06T00:31:24.432Z,100219.00
2022-09-06T00:33:53.486Z,100219.78
2022-09-06T00:36:23.586Z,100219.88
2022-09-06T00:38:52.209Z,100231.50
2022-09-06T00:41:21.130Z,100219.44
2022-09-06T00:43:49.636Z,100230.56
2022-09-06T00:46:25.221Z,100222.13
2022-09-06T00:49:06.604Z,100229.97
2022-09-06T00:51:36.809Z,100233.81
2022-09-06T00:54:07.903Z,100231.34
2022-09-06T00:56:42.305Z,100236.09
2022-09-06T00:59:11.244Z,100233.19
2022-09-06T01:01:39.967Z,100228.59
2022-09-06T01:04:09.015Z,100235.88
2022-09-06T01:06:45.904Z,100243.59
2022-09-06T01:09:53.924Z,100237.75
2022-09-06T01:12:35.685Z,100236.97
2022-09-06T01:15:29.214Z,100237.88
2022-09-06T01:18:20.571Z,100233.72
2022-09-06T01:21:07.207Z,100225.50
2022-09-06T01:23:56.849Z,100229.38
2022-09-06T01:26:49.244Z,100235.63
2022-09-06T01:29:23.731Z,100240.00
2022-09-06T01:32:04.913Z,100243.16
2022-09-06T01:34:57.734Z,100244.09
2022-09-06T01:37:27.265Z,100250.47
2022-09-06T01:39:56.138Z,100253.31
2022-09-06T01:42:29.469Z,100247.50
2022-09-06T01:45:23.085Z,100256.00
2022-09-06T01:48:03.527Z,100253.09
2022-09-06T01:51:08.927Z,100252.09
2022-09-06T01:54:02.559Z,100253.00
2022-09-06T01:56:58.735Z,100245.19
2022-09-06T01:59:38.879Z,100252.81
2022-09-06T02:02:37.338Z,100251.34
2022-09-06T02:05:16.005Z,100253.69
2022-09-06T02:07:48.164Z,100259.41
2022-09-06T02:10:46.659Z,100257.94
2022-09-06T02:13:17.219Z,100256.44
2022-09-06T02:15:53.645Z,100259.19
2022-09-06T02:18:28.456Z,100265.34
2022-09-06T02:21:00.052Z,100265.31
2022-09-06T02:23:32.814Z,100261.72
2022-09-06T02:26:10.929Z,100266.81
2022-09-06T02:28:39.586Z,100265.31
2022-09-06T02:31:24.840Z,100269.91
2022-09-06T02:33:54.554Z,100273.50
2022-09-06T02:36:23.364Z,100283.16
2022-09-06T02:38:52.024Z,100287.38
2022-09-06T02:41:24.127Z,100291.78
2022-09-06T02:43:52.685Z,100294.53
2022-09-06T02:46:21.423Z,100298.94
2022-09-06T02:48:50.125Z,100312.81
2022-09-06T02:51:18.724Z,100320.59
2022-09-06T02:53:47.724Z,100319.66
2022-09-06T02:56:16.205Z,100324.44
2022-09-06T02:58:44.844Z,100329.16
2022-09-06T03:01:13.547Z,100332.63
2022-09-06T03:03:42.281Z,100328.72
2022-09-06T03:06:10.924Z,100333.84
2022-09-06T03:08:39.684Z,100340.81
2022-09-06T03:11:08.474Z,100347.06
2022-09-06T03:13:37.090Z,100345.41
2022-09-06T03:16:05.622Z,100343.34
2022-09-06T03:18:34.290Z,100361.88
2022-09-06T03:21:03.259Z,100362.72
2022-09-06T03:23:32.080Z,100355.94
2022-09-06T03:26:00.689Z,100359.06
2022-09-06T03:28:29.649Z,100368.31
2022-09-06T03:30:58.268Z,100358.94
2022-09-06T03:33:26.884Z,100373.72
2022-09-06T03:35:58.635Z,100384.94
2022-09-06T03:38:29.229Z,100367.03
2022-09-06T03:40:58.430Z,100382.75
2022-09-06T03:43:28.317Z,100380.50
2022-09-06T03:45:58.785Z,100388.00
2022-09-06T03:48:29.599Z,100390.06
2022-09-06T03:50:59.866Z,100393.41
2022-09-06T03:53:30.615Z,100402.94
2022-09-06T03:56:00.169Z,100409.91
2022-09-06T03:58:33.117Z,100411.75
2022-09-06T04:01:09.907Z,100421.03
2022-09-06T04:03:39.704Z,100414.78
2022-09-06T04:06:09.506Z,100420.88
2022-09-06T04:08:39.405Z,100421.97
2022-09-06T04:11:08.339Z,100426.44
2022-09-06T04:13:37.761Z,100425.66
2022-09-06T04:16:07.360Z,100416.13
2022-09-06T04:18:35.999Z,100430.00
2022-09-06T04:21:06.044Z,100429.38
2022-09-06T04:23:39.644Z,100429.41
2022-09-06T04:26:08.844Z,100418.19
2022-09-06T04:28:37.492Z,100430.47
2022-09-06T04:31:06.716Z,100430.50
2022-09-06T04:33:37.439Z,100423.88
2022-09-06T04:36:09.793Z,100426.44
2022-09-06T04:38:43.344Z,100435.34
2022-09-06T04:41:14.155Z,100439.78
2022-09-06T04:43:43.233Z,100445.56
2022-09-06T04:46:14.605Z,100443.53
2022-09-06T04:48:43.265Z,100441.53
2022-09-06T04:51:11.849Z,100441.00
2022-09-06T04:53:40.433Z,100445.09
2022-09-06T04:56:09.129Z,100441.00
2022-09-06T04:58:37.644Z,100437.94
2022-09-06T05:01:06.254Z,100435.75
2022-09-06T05:03:34.924Z,100439.13
2022-09-06T05:06:08.527Z,100439.81
2022-09-06T05:08:40.845Z,100445.28
2022-09-06T05:11:11.871Z,100436.75
2022-09-06T05:13:41.060Z,100440.84
2022-09-06T05:16:10.628Z,100441.34
2022-09-06T05:18:39.879Z,100437.75
2022-09-06T05:21:08.689Z,100437.78
2022-09-06T05:23:39.885Z,100443.72
2022-09-06T05:26:08.685Z,100438.44
2022-09-06T05:28:37.281Z,100440.66
2022-09-06T05:31:27.394Z,100427.84
2022-09-06T05:33:57.160Z,100425.63
2022-09-06T05:36:26.950Z,100428.16
2022-09-06T05:38:56.949Z,100428.81
2022-09-06T05:41:26.445Z,100427.44
2022-09-06T05:43:55.086Z,100433.25
2022-09-06T05:46:23.595Z,100431.84
2022-09-06T05:48:57.182Z,100426.22
2022-09-06T05:51:25.824Z,100421.28
2022-09-06T05:53:54.564Z,100421.06
2022-09-06T05:56:23.595Z,100419.88
2022-09-06T05:58:52.309Z,100419.47
2022-09-06T06:01:23.513Z,100419.28
2022-09-06T06:03:58.125Z,100417.06
2022-09-06T06:06:28.981Z,100419.06
2022-09-06T06:08:57.904Z,100413.06
2022-09-06T06:11:27.530Z,100415.81
2022-09-06T06:13:56.435Z,100420.75
2022-09-06T06:16:24.960Z,100421.72
2022-09-06T06:18:53.545Z,100417.94
2022-09-06T06:21:25.585Z,100417.59
2022-09-06T06:24:05.606Z,100411.81
2022-09-06T06:26:36.863Z,100408.59
2022-09-06T06:29:09.165Z,100412.66
2022-09-06T06:31:40.015Z,100419.63
2022-09-06T06:34:09.624Z,100425.09
2022-09-06T06:36:38.604Z,100420.66
2022-09-06T06:39:09.647Z,100425.78
2022-09-06T06:41:38.936Z,100435.16
2022-09-06T06:44:07.686Z,100433.34
2022-09-06T06:46:38.606Z,100429.41
2022-09-06T06:49:07.330Z,100428.34
2022-09-06T06:51:40.530Z,100434.94
2022-09-06T06:54:09.014Z,100427.22
2022-09-06T06:56:40.200Z,100420.81
2022-09-06T06:59:09.284Z,100420.06
2022-09-06T07:01:39.031Z,100420.47
2022-09-06T07:04:09.665Z,100428.75
2022-09-06T07:12:30.141Z,100427.09
2022-09-06T07:14:58.616Z,100421.28
2022-09-06T07:17:27.090Z,100424.63
2022-09-06T07:22:44.686Z,100424.66
2022-09-06T07:25:19.070Z,100428.72
2022-09-06T07:27:50.373Z,100429.34
2022-09-06T07:30:20.806Z,100427.94
2022-09-06T07:32:49.865Z,100433.84
2022-09-06T07:35:18.415Z,100432.31
2022-09-06T07:37:56.990Z,100431.22
2022-09-06T07:40:26.766Z,100430.13
2022-09-06T07:42:59.200Z,100434.00
2022-09-06T07:45:28.210Z,100434.78
2022-09-06T07:48:00.760Z,100437.25
2022-09-06T07:53:16.532Z,100434.31
2022-09-06T07:55:47.727Z,100430.88
2022-09-06T07:58:16.372Z,100429.16
2022-09-06T08:00:45.051Z,100424.91
2022-09-06T08:03:14.465Z,100417.06
2022-09-06T08:11:21.645Z,100442.19
2022-09-06T08:13:57.650Z,100444.19
2022-09-06T08:16:29.071Z,100442.75
2022-09-06T08:19:00.165Z,100430.53
2022-09-06T08:21:33.082Z,100437.94
2022-09-06T08:24:08.209Z,100434.50
2022-09-06T08:26:41.286Z,100440.78
2022-09-06T08:29:11.273Z,100434.81
2022-09-06T08:31:42.392Z,100437.81
2022-09-06T08:34:13.535Z,100439.28
2022-09-06T08:36:43.315Z,100430.59
2022-09-06T08:39:12.880Z,100437.47
2022-09-06T08:41:53.647Z,100447.63
2022-09-06T08:47:22.072Z,100426.66
2022-09-06T08:49:58.285Z,100428.66
2022-09-06T08:53:13.102Z,100422.97
2022-09-06T08:55:54.298Z,100422.44
2022-09-06T08:58:40.856Z,100422.44
2022-09-06T09:01:15.715Z,100421.44
2022-09-06T09:03:45.804Z,100426.13
2022-09-06T09:06:14.764Z,100422.72
2022-09-06T09:09:05.165Z,100425.72
2022-09-06T09:11:37.007Z,100428.34
2022-09-06T09:14:23.704Z,100429.63
2022-09-06T09:17:00.366Z,100427.47
2022-09-06T09:19:32.645Z,100427.03
2022-09-06T09:22:01.165Z,100416.50
2022-09-06T09:24:29.787Z,100424.63
2022-09-06T09:27:12.346Z,100415.66
2022-09-06T09:32:51.565Z,100416.22
2022-09-06T09:35:38.765Z,100413.66
2022-09-06T09:38:21.812Z,100408.41
2022-09-06T09:40:57.449Z,100400.72
2022-09-06T09:44:00.032Z,100403.13
2022-09-06T09:46:34.625Z,100401.88
2022-09-06T09:49:13.328Z,100406.72
2022-09-06T09:51:46.764Z,100406.16
2022-09-06T09:54:30.997Z,100405.44
2022-09-06T09:57:00.044Z,100407.72
2022-09-06T09:59:44.475Z,100401.19
2022-09-06T10:02:32.964Z,100406.88
2022-09-06T10:05:25.800Z,100411.88
2022-09-06T10:07:56.689Z,100415.84
2022-09-06T10:10:31.736Z,100417.00
2022-09-06T10:13:14.616Z,100413.44
2022-09-06T10:15:44.546Z,100412.00
2022-09-06T10:18:38.125Z,100413.13
2022-09-06T10:21:14.266Z,100413.28
2022-09-06T10:27:03.279Z,100415.69
2022-09-06T10:29:42.045Z,100409.84
2022-09-06T10:32:34.709Z,100410.84
2022-09-06T10:35:27.884Z,100410.25
2022-09-06T10:38:21.944Z,100409.72
2022-09-06T10:41:21.274Z,100413.53
2022-09-06T10:44:25.124Z,100409.41
2022-09-06T10:47:06.020Z,100407.00
2022-09-06T10:49:35.724Z,100414.38
2022-09-06T10:52:07.711Z,100412.81
2022-09-06T10:54:41.926Z,100425.78
2022-09-06T11:00:15.493Z,100418.22
2022-09-06T11:05:55.085Z,100412.22
2022-09-06T11:08:50.364Z,100420.47
2022-09-06T11:11:28.160Z,100421.47
2022-09-06T11:13:56.849Z,100416.34
2022-09-06T11:16:33.784Z,100419.31
2022-09-06T11:19:11.249Z,100416.63
2022-09-06T11:22:11.089Z,100410.47
2022-09-06T11:25:19.080Z,100416.13
2022-09-06T11:27:57.779Z,100417.25
2022-09-06T11:30:28.794Z,100427.22
2022-09-06T11:33:22.748Z,100422.09
2022-09-06T11:35:52.012Z,100427.78
2022-09-06T11:38:28.845Z,100421.06
2022-09-06T11:41:02.894Z,100425.75
2022-09-06T11:43:48.843Z,100424.91
2022-09-06T11:46:35.968Z,100428.59
2022-09-06T11:49:10.443Z,100432.31
2022-09-06T11:51:42.080Z,100437.81
2022-09-06T11:54:16.684Z,100438.97
2022-09-06T11:56:56.804Z,100430.16
2022-09-06T11:59:35.724Z,100435.06
2022-09-06T12:02:24.265Z,100433.78
2022-09-06T12:05:08.359Z,100436.19
2022-09-06T12:07:59.245Z,100442.00
2022-09-06T12:10:50.924Z,100446.09
2022-09-06T12:13:42.874Z,100444.63
2022-09-06T12:16:15.711Z,100439.50
2022-09-06T12:18:50.124Z,100444.28
2022-09-06T12:21:54.285Z,100436.63
2022-09-06T12:24:39.888Z,100447.44
2022-09-06T12:27:17.337Z,100455.63
2022-09-06T12:29:57.324Z,100457.59
2022-09-06T12:32:43.584Z,100450.59
2022-09-06T12:38:07.993Z,100449.84
2022-09-06T12:40:48.903Z,100451.78
2022-09-06T12:43:19.249Z,100453.78
2022-09-06T12:45:54.447Z,100454.88
2022-09-06T12:48:36.239Z,100453.19
2022-09-06T12:51:17.505Z,100457.72
2022-09-06T12:54:00.434Z,100462.53
2022-09-06T12:56:31.207Z,100468.06
2022-09-06T12:59:15.355Z,100468.22
2022-09-06T13:01:52.225Z,100469.06
2022-09-06T13:04:29.003Z,100471.88
2022-09-06T13:06:59.404Z,100473.00
2022-09-06T13:09:31.049Z,100485.91
2022-09-06T13:12:18.935Z,100477.09
2022-09-06T13:14:47.730Z,100478.19
2022-09-06T13:17:27.686Z,100481.28
2022-09-06T13:19:56.484Z,100485.09
2022-09-06T13:22:43.724Z,100484.25
2022-09-06T13:25:30.290Z,100490.59
2022-09-06T13:27:59.399Z,100478.09
2022-09-06T13:30:49.855Z,100481.19
2022-09-06T13:33:28.372Z,100494.06
2022-09-06T13:36:10.404Z,100500.59
2022-09-06T13:38:44.335Z,100498.91
2022-09-06T13:41:39.884Z,100507.09
2022-09-06T13:44:17.444Z,100514.22
2022-09-06T13:46:46.199Z,100517.03
2022-09-06T13:49:15.404Z,100520.72
2022-09-06T13:51:44.341Z,100523.56
2022-09-06T13:54:15.272Z,100524.66
2022-09-06T13:56:47.208Z,100538.28
2022-09-06T13:59:16.365Z,100535.69
2022-09-06T14:01:47.724Z,100542.06
2022-09-06T14:04:22.405Z,100545.59
2022-09-06T14:06:51.084Z,100558.38
2022-09-06T14:09:19.775Z,100554.81
2022-09-06T14:11:48.562Z,100558.50
2022-09-06T14:14:19.029Z,100564.78
2022-09-06T14:16:51.405Z,100567.47
2022-09-06T14:19:20.115Z,100561.94
2022-09-06T14:21:48.702Z,100577.13
2022-09-06T14:24:17.646Z,100566.28
2022-09-06T14:26:46.085Z,100563.31
2022-09-06T14:29:14.766Z,100573.88
2022-09-06T14:31:43.404Z,100569.78
2022-09-06T14:34:12.434Z,100572.97
2022-09-06T14:36:41.449Z,100579.00
2022-09-06T14:39:09.925Z,100572.34
2022-09-06T14:41:38.506Z,100580.94
2022-09-06T14:44:07.024Z,100576.16
2022-09-06T14:46:35.569Z,100577.47
2022-09-06T14:49:09.444Z,100581.38
2022-09-06T14:51:39.564Z,100582.59
2022-09-06T14:54:11.880Z,100581.53
2022-09-06T14:56:42.791Z,100580.56
2022-09-06T14:59:11.970Z,100584.94
2022-09-06T15:01:42.201Z,100575.63
2022-09-06T15:04:12.827Z,100577.13
2022-09-06T15:06:45.871Z,100572.38
2022-09-06T15:09:18.565Z,100576.44
2022-09-06T15:11:49.782Z,100584.25
2022-09-06T15:14:26.928Z,100583.19
2022-09-06T15:17:00.939Z,100583.81
2022-09-06T15:19:31.548Z,100579.28
2022-09-06T15:22:00.170Z,100581.88
2022-09-06T15:24:29.694Z,100571.22
2022-09-06T15:26:58.670Z,100578.53
2022-09-06T15:29:28.527Z,100579.41
2022-09-06T15:31:58.124Z,100579.41
2022-09-06T15:34:27.890Z,100584.84
2022-09-06T15:36:57.611Z,100585.72
2022-09-06T15:39:26.119Z,100584.59
2022-09-06T15:41:54.605Z,100577.06
2022-09-06T15:44:23.249Z,100584.75
2022-09-06T15:46:58.644Z,100590.00
2022-09-06T15:49:33.314Z,100585.41
2022-09-06T15:52:03.990Z,100587.25
2022-09-06T15:54:50.647Z,100587.38
2022-09-06T15:57:19.550Z,100585.50
2022-09-06T15:59:48.986Z,100588.22
2022-09-06T16:02:17.884Z,100578.16
2022-09-06T16:04:47.585Z,100593.13
2022-09-06T16:07:16.329Z,100594.03
2022-09-06T16:09:44.861Z,100599.00
2022-09-06T16:12:13.329Z,100596.78
2022-09-06T16:14:41.805Z,100600.97
2022-09-06T16:17:10.447Z,100580.00
2022-09-06T16:19:39.085Z,100591.13
2022-09-06T16:22:07.683Z,100593.38
2022-09-06T16:24:36.359Z,100594.47
2022-09-06T16:27:05.005Z,100593.25
2022-09-06T16:29:33.585Z,100584.53
2022-09-06T16:32:02.135Z,100571.38
2022-09-06T16:34:30.689Z,100581.84
2022-09-06T16:36:59.370Z,100584.44
2022-09-06T16:39:28.201Z,100582.91
2022-09-06T16:41:56.824Z,100583.00
2022-09-06T16:44:25.660Z,100579.13
2022-09-06T16:46:54.955Z,100564.53
2022-09-06T16:49:24.525Z,100566.78
2022-09-06T16:51:53.444Z,100577.59
2022-09-06T16:54:22.626Z,100574.56
2022-09-06T16:56:51.109Z,100585.31
2022-09-06T16:59:20.053Z,100587.75
2022-09-06T17:01:48.719Z,100586.41
2022-09-06T17:04:17.612Z,100573.16
2022-09-06T17:06:46.662Z,100576.91
2022-09-06T17:09:19.729Z,100577.97
2022-09-06T17:11:52.328Z,100570.78
2022-09-06T17:14:20.830Z,100565.69
2022-09-06T17:17:08.188Z,100537.47
2022-09-06T17:19:42.450Z,100527.66
2022-09-06T17:22:14.245Z,100526.91
2022-09-06T17:24:43.854Z,100534.34
2022-09-06T17:27:12.414Z,100536.31
2022-09-06T17:29:41.131Z,100542.59
2022-09-06T17:32:12.825Z,100558.09
2022-09-06T17:34:42.269Z,100556.72
2022-09-06T17:37:10.925Z,100550.69
2022-09-06T17:39:40.043Z,100550.84
2022-09-06T17:42:08.770Z,100537.94
2022-09-06T17:44:37.489Z,100529.31
2022-09-06T17:47:12.999Z,100531.44
2022-09-06T17:49:43.751Z,100538.53
2022-09-06T17:52:12.934Z,100545.94
2022-09-06T17:54:41.671Z,100553.16
2022-09-06T17:57:10.292Z,100543.41
2022-09-06T17:59:39.581Z,100549.53
2022-09-06T18:02:08.689Z,100553.13
2022-09-06T18:04:37.884Z,100554.16
2022-09-06T18:07:06.449Z,100545.91
2022-09-06T18:09:34.925Z,100551.19
2022-09-06T18:12:03.440Z,100548.25
2022-09-06T18:14:31.990Z,100541.00
2022-09-06T18:17:00.841Z,100540.28
2022-09-06T18:19:29.370Z,100543.78
2022-09-06T18:21:58.765Z,100535.00
2022-09-06T18:24:27.364Z,100529.25
2022-09-06T18:26:56.504Z,100533.59
2022-09-06T18:29:25.129Z,100543.88
2022-09-06T18:31:55.178Z,100535.06
2022-09-06T18:34:24.041Z,100529.69
2022-09-06T18:36:52.691Z,100519.66
2022-09-06T18:39:21.657Z,100525.28
2022-09-06T18:42:02.294Z,100514.75
2022-09-06T18:44:33.507Z,100503.66
2022-09-06T18:47:03.281Z,100500.31
2022-09-06T18:49:32.014Z,100490.63
2022-09-06T18:52:01.250Z,100488.91
2022-09-06T18:54:30.355Z,100492.09
2022-09-06T18:56:59.424Z,100491.25
2022-09-06T18:59:28.005Z,100490.38
2022-09-06T19:01:56.770Z,100488.03
2022-09-06T19:04:25.384Z,100489.91
2022-09-06T19:06:54.289Z,100485.56
2022-09-06T19:09:23.988Z,100489.53
2022-09-06T19:11:54.044Z,100480.63
2022-09-06T19:14:23.267Z,100482.25
2022-09-06T19:16:54.951Z,100477.09
2022-09-06T19:19:25.261Z,100478.44
2022-09-06T19:21:54.714Z,100476.72
2022-09-06T19:24:25.796Z,100473.00
2022-09-06T19:26:54.594Z,100462.34
2022-09-06T19:29:24.354Z,100458.69
2022-09-06T19:31:54.280Z,100466.09
2022-09-06T19:34:23.267Z,100460.47
2022-09-06T19:36:56.209Z,100463.31
2022-09-06T19:39:33.488Z,100463.19
2022-09-06T19:42:05.406Z,100469.97
2022-09-06T19:44:34.740Z,100466.56
2022-09-06T19:47:07.738Z,100461.25
2022-09-06T19:49:36.970Z,100469.75
2022-09-06T19:52:10.543Z,100466.50
2022-09-06T19:54:40.375Z,100471.81
2022-09-06T19:57:09.130Z,100470.53
2022-09-06T19:59:37.999Z,100466.88
2022-09-06T20:02:06.823Z,100468.72
2022-09-06T20:04:35.581Z,100455.00
2022-09-06T20:07:04.399Z,100458.91
2022-09-06T20:09:33.155Z,100457.69
2022-09-06T20:12:01.955Z,100453.09
2022-09-06T20:14:30.655Z,100454.75
2022-09-06T20:17:16.492Z,100453.88
2022-09-06T20:19:51.748Z,100452.31
2022-09-06T20:22:20.504Z,100458.75
2022-09-06T20:24:50.260Z,100457.16
2022-09-06T20:27:19.675Z,100455.94
2022-09-06T20:29:48.515Z,100461.81
2022-09-06T20:32:17.245Z,100457.03
2022-09-06T20:34:46.455Z,100452.94
2022-09-06T20:37:15.349Z,100451.19
2022-09-06T20:39:44.102Z,100452.28
2022-09-06T20:42:13.596Z,100452.00
2022-09-06T20:44:42.564Z,100447.81
2022-09-06T20:47:12.509Z,100442.22
2022-09-06T20:49:41.139Z,100441.34
2022-09-06T20:52:09.680Z,100441.28
2022-09-06T20:54:38.509Z,100443.72
2022-09-06T20:57:07.435Z,100443.94
2022-09-06T20:59:36.234Z,100436.84
2022-09-06T21:02:05.241Z,100438.41
2022-09-06T21:04:36.909Z,100451.59
2022-09-06T21:07:05.879Z,100450.53
2022-09-06T21:09:34.415Z,100444.19
2022-09-06T21:12:05.671Z,100453.44
2022-09-06T21:14:34.610Z,100446.31
2022-09-06T21:17:03.695Z,100443.59
2022-09-06T21:19:32.637Z,100453.41
2022-09-06T21:22:02.186Z,100456.75
2022-09-06T21:24:31.489Z,100452.56
2022-09-06T21:30:48.364Z,100464.63
2022-09-06T21:33:17.758Z,100466.31
2022-09-06T21:35:46.880Z,100458.28
2022-09-06T21:38:16.669Z,100452.78
2022-09-06T21:40:45.975Z,100448.31
2022-09-06T21:43:15.765Z,100442.72
2022-09-06T21:45:45.494Z,100450.59
2022-09-06T21:48:19.514Z,100451.78
2022-09-06T21:50:52.585Z,100445.06
2022-09-06T21:53:24.280Z,100448.78
2022-09-06T21:55:53.525Z,100451.97
2022-09-06T21:58:22.978Z,100443.91
2022-09-06T22:00:57.913Z,100443.06
2022-09-06T22:03:28.785Z,100444.72
2022-09-06T22:05:59.350Z,100440.81
2022-09-06T22:08:28.905Z,100436.03
2022-09-06T22:11:08.646Z,100441.09
2022-09-06T22:13:38.385Z,100429.34
2022-09-06T22:16:08.455Z,100430.78
2022-09-06T22:18:37.750Z,100428.00
2022-09-06T22:21:13.270Z,100431.06
2022-09-06T22:23:43.325Z,100437.72
2022-09-06T22:26:14.629Z,100441.91
2022-09-06T22:28:44.318Z,100445.22
2022-09-06T22:31:13.756Z,100445.53
2022-09-06T22:33:42.894Z,100448.00
2022-09-06T22:36:12.634Z,100451.28
2022-09-06T22:38:42.244Z,100453.78
2022-09-06T22:41:11.992Z,100446.72
2022-09-06T22:43:41.429Z,100451.94
2022-09-06T22:46:14.157Z,100457.09
2022-09-06T22:48:43.517Z,100461.75
2022-09-06T22:51:13.273Z,100461.75
2022-09-06T22:53:42.719Z,100458.06
2022-09-06T22:56:11.883Z,100459.75
2022-09-06T22:58:41.099Z,100463.00
2022-09-06T23:01:18.273Z,100466.47
2022-09-06T23:03:50.922Z,100469.97
2022-09-06T23:06:20.299Z,100471.72
2022-09-06T23:08:49.653Z,100469.94
2022-09-06T23:11:20.736Z,100476.22
2022-09-06T23:13:50.058Z,100476.22
2022-09-06T23:16:21.169Z,100476.94
2022-09-06T23:18:51.360Z,100472.94
2022-09-06T23:21:23.563Z,100472.34
2022-09-06T23:23:54.541Z,100478.63
2022-09-06T23:26:26.930Z,100476.50
2022-09-06T23:28:59.014Z,100475.28
2022-09-06T23:31:30.733Z,100476.38
2022-09-06T23:34:01.599Z,100482.97
2022-09-06T23:36:31.185Z,100485.34
2022-09-06T23:39:01.099Z,100487.22
2022-09-06T23:41:30.704Z,100488.31
2022-09-06T23:44:00.141Z,100484.84
2022-09-06T23:46:29.768Z,100486.13
2022-09-06T23:48:59.151Z,100492.59
2022-09-06T23:51:28.548Z,100496.06
2022-09-06T23:53:58.064Z,100494.47
2022-09-06T23:56:27.590Z,100496.69
2022-09-06T23:58:57.099Z,100495.44
